createdAt,value
2022-08-12T00:00:16.869Z,1.10
2022-08-12T00:02:43.589Z,1.37
2022-08-12T00:05:13.039Z,1.10
2022-08-12T00:07:40.668Z,1.30
2022-08-12T00:10:07.841Z,1.40
2022-08-12T00:12:34.703Z,1.20
2022-08-12T00:15:02.878Z,1.53
2022-08-12T00:17:30.439Z,1.30
2022-08-12T00:19:56.984Z,1.60
2022-08-12T00:22:23.966Z,1.20
2022-08-12T00:24:50.497Z,1.20
2022-08-12T00:27:17.543Z,1.10
2022-08-12T00:29:47.751Z,1.13
2022-08-12T00:32:35.301Z,1.10
2022-08-12T00:35:08.687Z,1.33
2022-08-12T00:37:35.758Z,1.30
2022-08-12T00:40:04.752Z,1.20
2022-08-12T00:42:39.853Z,1.30
2022-08-12T00:45:07.294Z,1.30
2022-08-12T00:47:35.646Z,1.40
2022-08-12T00:50:02.571Z,1.03
2022-08-12T00:52:29.140Z,1.20
2022-08-12T00:54:57.541Z,1.30
2022-08-12T00:57:27.257Z,1.37
2022-08-12T00:59:55.662Z,1.10
2022-08-12T01:02:24.574Z,1.20
2022-08-12T01:04:55.725Z,1.07
2022-08-12T01:07:26.626Z,1.30
2022-08-12T01:09:54.545Z,1.10
2022-08-12T01:12:21.322Z,1.20
2022-08-12T01:14:48.024Z,1.00
2022-08-12T01:17:14.740Z,1.30
2022-08-12T01:19:41.376Z,1.27
2022-08-12T01:22:26.064Z,1.10
2022-08-12T01:24:59.631Z,1.13
2022-08-12T01:27:27.554Z,1.10
2022-08-12T01:29:56.808Z,0.97
2022-08-12T01:32:26.984Z,1.10
2022-08-12T01:35:00.367Z,1.10
2022-08-12T01:37:29.543Z,0.90
2022-08-12T01:40:33.830Z,1.20
2022-08-12T01:42:49.100Z,1.03
2022-08-12T01:45:16.815Z,1.20
2022-08-12T01:48:03.820Z,1.10
2022-08-12T01:50:41.047Z,1.00
2022-08-12T01:53:11.960Z,1.23
2022-08-12T01:55:42.285Z,1.20
2022-08-12T01:58:22.459Z,1.07
2022-08-12T02:00:56.240Z,1.10
2022-08-12T02:03:45.583Z,1.10
2022-08-12T02:06:22.314Z,1.10
2022-08-12T02:08:54.208Z,1.10
2022-08-12T02:11:25.118Z,1.07
2022-08-12T02:14:29.568Z,0.87
2022-08-12T02:17:08.325Z,1.00
2022-08-12T02:20:00.705Z,0.90
2022-08-12T02:22:30.193Z,1.10
2022-08-12T02:25:03.551Z,1.10
2022-08-12T02:27:37.014Z,1.00
2022-08-12T02:30:05.538Z,1.37
2022-08-12T02:32:36.624Z,1.10
2022-08-12T02:35:03.768Z,1.30
2022-08-12T02:37:31.945Z,1.30
2022-08-12T02:40:02.524Z,1.20
2022-08-12T02:42:34.658Z,1.40
2022-08-12T02:45:05.173Z,1.13
2022-08-12T02:47:58.297Z,1.30
2022-08-12T02:50:22.711Z,1.13
2022-08-12T02:52:49.962Z,1.20
2022-08-12T02:55:28.806Z,1.27
2022-08-12T02:58:06.951Z,1.40
2022-08-12T03:00:36.212Z,1.37
2022-08-12T03:03:06.230Z,1.20
2022-08-12T03:05:44.028Z,1.33
2022-08-12T03:08:22.333Z,1.23
2022-08-12T03:11:04.546Z,1.50
2022-08-12T03:13:37.060Z,1.20
2022-08-12T03:16:04.198Z,1.47
2022-08-12T03:18:32.595Z,1.40
2022-08-12T03:21:00.661Z,1.30
2022-08-12T03:23:31.095Z,1.20
2022-08-12T03:25:59.528Z,1.70
2022-08-12T03:28:28.262Z,1.40
2022-08-12T03:30:57.267Z,1.33
2022-08-12T03:33:25.519Z,1.40
2022-08-12T03:35:55.496Z,1.40
2022-08-12T03:38:25.913Z,1.30
2022-08-12T03:40:59.357Z,1.17
2022-08-12T03:43:31.289Z,1.20
2022-08-12T03:46:04.419Z,1.10
2022-08-12T03:48:30.999Z,1.20
2022-08-12T03:50:58.532Z,1.20
2022-08-12T03:53:27.710Z,1.10
2022-08-12T03:55:54.981Z,1.30
2022-08-12T03:58:22.031Z,1.10
2022-08-12T04:00:49.056Z,1.30
2022-08-12T04:03:17.673Z,1.20
2022-08-12T04:05:55.987Z,1.17
2022-08-12T04:08:24.871Z,1.30
2022-08-12T04:10:51.793Z,1.20
2022-08-12T04:13:20.601Z,1.40
2022-08-12T04:15:48.153Z,1.37
2022-08-12T04:18:15.463Z,1.17
2022-08-12T04:20:44.560Z,1.33
2022-08-12T04:23:11.630Z,1.43
2022-08-12T04:25:44.086Z,1.30
2022-08-12T04:28:13.525Z,1.50
2022-08-12T04:30:41.025Z,1.37
2022-08-12T04:33:08.090Z,1.50
2022-08-12T04:35:34.769Z,1.30
2022-08-12T04:38:03.253Z,0.93
2022-08-12T04:40:32.692Z,1.23
2022-08-12T04:43:00.184Z,1.37
2022-08-12T04:45:26.749Z,1.30
2022-08-12T04:47:53.331Z,1.30
2022-08-12T04:50:34.556Z,1.20
2022-08-12T04:53:06.201Z,1.37
2022-08-12T04:55:34.190Z,1.43
2022-08-12T04:58:00.833Z,1.47
2022-08-12T05:00:27.519Z,1.70
2022-08-12T05:02:54.209Z,1.30
2022-08-12T05:05:23.086Z,1.83
2022-08-12T05:07:54.479Z,1.47
2022-08-12T05:10:33.101Z,1.17
2022-08-12T05:13:04.778Z,1.50
2022-08-12T05:15:31.341Z,1.37
2022-08-12T05:17:59.870Z,1.90
2022-08-12T05:20:29.596Z,1.40
2022-08-12T05:23:12.207Z,1.83
2022-08-12T05:25:41.624Z,1.60
2022-08-12T05:28:08.731Z,1.33
2022-08-12T05:30:36.481Z,1.50
2022-08-12T05:33:04.413Z,1.50
2022-08-12T05:35:31.375Z,1.30
2022-08-12T05:37:57.917Z,1.43
2022-08-12T05:40:24.477Z,1.10
2022-08-12T05:42:52.394Z,1.20
2022-08-12T05:45:18.942Z,1.20
2022-08-12T05:47:53.639Z,1.30
2022-08-12T05:50:21.089Z,1.70
2022-08-12T05:52:48.188Z,1.30
2022-08-12T05:55:16.223Z,1.40
2022-08-12T05:57:42.794Z,1.30
2022-08-12T06:00:11.834Z,1.20
2022-08-12T06:02:38.443Z,1.10
2022-08-12T06:05:05.761Z,1.23
2022-08-12T06:08:00.449Z,1.50
2022-08-12T06:10:18.993Z,1.20
2022-08-12T06:12:59.540Z,1.13
2022-08-12T06:15:27.533Z,1.20
2022-08-12T06:17:54.259Z,1.23
2022-08-12T06:20:27.696Z,1.40
2022-08-12T06:22:56.509Z,1.03
2022-08-12T06:25:23.442Z,1.20
2022-08-12T06:28:07.669Z,1.20
2022-08-12T06:30:39.144Z,1.30
2022-08-12T06:33:11.634Z,1.23
2022-08-12T06:35:49.876Z,1.17
2022-08-12T06:38:18.667Z,1.13
2022-08-12T06:40:46.299Z,0.97
2022-08-12T06:43:12.848Z,1.23
2022-08-12T06:45:45.792Z,1.10
2022-08-12T06:48:13.057Z,1.10
2022-08-12T06:50:40.326Z,1.10
2022-08-12T06:53:07.064Z,1.00
2022-08-12T06:55:33.670Z,0.93
2022-08-12T06:58:07.494Z,1.00
2022-08-12T07:00:37.285Z,0.97
2022-08-12T07:03:22.830Z,0.97
2022-08-12T07:05:50.992Z,0.90
2022-08-12T07:08:18.081Z,1.20
2022-08-12T07:10:46.478Z,1.00
2022-08-12T07:13:13.068Z,0.70
2022-08-12T07:15:39.784Z,1.13
2022-08-12T07:18:11.451Z,0.90
2022-08-12T07:20:52.296Z,0.73
2022-08-12T07:23:20.176Z,1.10
2022-08-12T07:25:46.739Z,1.00
2022-08-12T07:28:16.790Z,0.87
2022-08-12T07:30:45.759Z,1.10
2022-08-12T07:33:13.874Z,1.00
2022-08-12T07:35:41.555Z,0.70
2022-08-12T07:38:19.143Z,0.87
2022-08-12T07:41:00.025Z,0.83
2022-08-12T07:43:26.555Z,1.00
2022-08-12T07:45:54.663Z,1.00
2022-08-12T07:48:24.083Z,0.90
2022-08-12T07:50:51.085Z,1.00
2022-08-12T07:53:17.921Z,0.90
2022-08-12T07:55:44.467Z,0.90
2022-08-12T07:58:11.077Z,1.03
2022-08-12T08:00:38.625Z,0.90
2022-08-12T08:03:05.147Z,0.93
2022-08-12T08:05:33.732Z,1.00
2022-08-12T08:08:00.313Z,1.00
2022-08-12T08:10:27.107Z,1.00
2022-08-12T08:12:54.146Z,0.80
2022-08-12T08:15:33.720Z,0.70
2022-08-12T08:18:10.652Z,0.88
2022-08-12T08:20:40.202Z,0.77
2022-08-12T08:23:09.396Z,0.90
2022-08-12T08:25:37.632Z,0.88
2022-08-12T08:28:06.954Z,1.10
2022-08-12T08:30:34.742Z,0.70
2022-08-12T08:33:01.269Z,1.00
2022-08-12T08:35:43.173Z,0.77
2022-08-12T08:38:16.314Z,0.85
2022-08-12T08:40:59.372Z,1.13
2022-08-12T08:43:26.279Z,0.95
2022-08-12T08:46:11.300Z,0.90
2022-08-12T08:48:37.859Z,0.93
2022-08-12T08:51:05.182Z,0.75
2022-08-12T08:53:33.284Z,0.82
2022-08-12T08:56:07.130Z,0.80
2022-08-12T08:58:33.695Z,0.93
2022-08-12T09:01:00.272Z,0.93
2022-08-12T09:05:12.942Z,0.80
2022-08-12T09:06:14.573Z,0.85
2022-08-12T09:08:46.345Z,0.80
2022-08-12T09:12:06.542Z,0.90
2022-08-12T09:14:11.479Z,0.70
2022-08-12T09:16:42.917Z,0.90
2022-08-12T09:19:27.356Z,0.90
2022-08-12T09:21:55.525Z,0.80
2022-08-12T09:24:27.789Z,0.93
2022-08-12T09:26:54.708Z,0.80
2022-08-12T09:30:12.039Z,0.70
2022-08-12T09:32:09.363Z,0.95
2022-08-12T09:34:43.105Z,0.80
2022-08-12T09:37:19.938Z,0.93
2022-08-12T09:40:03.265Z,0.80
2022-08-12T09:42:44.082Z,0.77
2022-08-12T09:46:06.962Z,0.65
2022-08-12T09:48:09.721Z,0.80
2022-08-12T09:50:36.289Z,0.75
2022-08-12T09:53:14.883Z,0.90
2022-08-12T09:56:33.267Z,0.90
2022-08-12T09:58:53.772Z,1.08
2022-08-12T10:01:34.561Z,0.70
2022-08-12T10:04:13.990Z,0.68
2022-08-12T10:06:54.366Z,0.82
2022-08-12T10:09:22.986Z,0.80
2022-08-12T10:12:12.348Z,0.68
2022-08-12T10:14:39.779Z,0.75
2022-08-12T10:17:16.430Z,0.73
2022-08-12T10:19:51.598Z,0.80
2022-08-12T10:22:36.722Z,0.63
2022-08-12T10:25:17.530Z,0.73
2022-08-12T10:28:04.967Z,0.70
2022-08-12T10:30:39.677Z,0.63
2022-08-12T10:33:18.180Z,0.77
2022-08-12T10:35:45.915Z,0.85
2022-08-12T10:38:36.134Z,0.55
2022-08-12T10:41:00.122Z,0.90
2022-08-12T10:43:30.421Z,0.73
2022-08-12T10:46:16.991Z,0.75
2022-08-12T10:48:45.285Z,0.93
2022-08-12T10:52:03.593Z,0.68
2022-08-12T10:54:13.211Z,0.98
2022-08-12T10:56:39.914Z,0.82
2022-08-12T10:59:11.608Z,0.55
2022-08-12T11:04:17.052Z,0.80
2022-08-12T11:04:45.346Z,0.80
2022-08-12T11:08:35.053Z,0.70
2022-08-12T11:10:01.487Z,0.80
2022-08-12T11:12:55.346Z,0.65
2022-08-12T11:15:20.936Z,0.88
2022-08-12T11:17:53.481Z,0.70
2022-08-12T11:20:23.997Z,0.90
2022-08-12T11:22:58.408Z,0.70
2022-08-12T11:25:55.563Z,0.70
2022-08-12T11:28:13.755Z,0.70
2022-08-12T11:30:42.770Z,0.90
2022-08-12T11:33:12.290Z,0.70
2022-08-12T11:35:53.123Z,0.60
2022-08-12T11:38:22.837Z,0.90
2022-08-12T11:40:49.626Z,0.77
2022-08-12T11:43:19.282Z,0.95
2022-08-12T11:45:52.824Z,0.80
2022-08-12T11:48:26.884Z,0.70
2022-08-12T11:50:55.106Z,0.70
2022-08-12T11:53:56.476Z,0.70
2022-08-12T11:56:08.479Z,0.80
2022-08-12T12:01:58.537Z,0.82
2022-08-12T12:02:02.557Z,0.80
2022-08-12T12:04:12.590Z,0.73
2022-08-12T12:06:55.419Z,0.80
2022-08-12T12:09:21.958Z,0.60
2022-08-12T12:11:50.744Z,0.70
2022-08-12T12:14:17.981Z,0.88
2022-08-12T12:16:48.301Z,0.93
2022-08-12T12:19:16.834Z,0.70
2022-08-12T12:21:47.133Z,0.80
2022-08-12T12:24:22.084Z,0.98
2022-08-12T12:27:00.160Z,0.55
2022-08-12T12:30:13.706Z,0.60
2022-08-12T12:32:16.380Z,0.63
2022-08-12T12:35:13.520Z,0.70
2022-08-12T12:38:03.848Z,0.70
2022-08-12T12:40:16.431Z,0.90
2022-08-12T12:42:55.608Z,0.70
2022-08-12T12:45:27.853Z,0.93
2022-08-12T12:48:02.136Z,0.50
2022-08-12T12:50:35.220Z,0.70
2022-08-12T12:53:02.882Z,0.70
2022-08-12T12:55:32.656Z,0.80
2022-08-12T12:58:03.049Z,0.75
2022-08-12T13:00:29.953Z,0.70
2022-08-12T13:02:57.032Z,0.68
2022-08-12T13:05:27.831Z,0.95
2022-08-12T13:08:01.003Z,0.63
2022-08-12T13:10:30.528Z,0.80
2022-08-12T13:12:57.861Z,0.60
2022-08-12T13:15:43.459Z,0.70
2022-08-12T13:18:11.037Z,0.70
2022-08-12T13:20:43.074Z,0.70
2022-08-12T13:23:36.338Z,0.50
2022-08-12T13:25:56.980Z,0.65
2022-08-12T13:28:24.870Z,0.60
2022-08-12T13:30:56.385Z,0.85
2022-08-12T13:33:23.718Z,0.85
2022-08-12T13:36:04.998Z,0.85
2022-08-12T13:38:35.538Z,0.70
2022-08-12T13:41:02.229Z,0.70
2022-08-12T13:43:40.579Z,0.80
2022-08-12T13:46:08.440Z,0.80
2022-08-12T13:48:38.995Z,0.80
2022-08-12T13:51:12.851Z,0.70
2022-08-12T13:53:54.950Z,0.80
2022-08-12T13:56:26.171Z,0.80
2022-08-12T13:59:02.077Z,0.70
2022-08-12T14:01:28.717Z,0.70
2022-08-12T14:03:55.406Z,0.70
2022-08-12T14:06:25.867Z,0.80
2022-08-12T14:08:52.598Z,0.70
2022-08-12T14:11:19.318Z,0.70
2022-08-12T14:14:06.146Z,0.82
2022-08-12T14:16:48.657Z,0.70
2022-08-12T14:19:23.348Z,0.90
2022-08-12T14:22:00.470Z,0.80
2022-08-12T14:24:30.896Z,0.70
2022-08-12T14:27:01.920Z,0.70
2022-08-12T14:29:38.217Z,0.70
2022-08-12T14:32:16.827Z,0.63
2022-08-12T14:34:44.223Z,0.60
2022-08-12T14:37:13.041Z,0.70
2022-08-12T14:39:58.690Z,0.73
2022-08-12T14:42:26.033Z,0.70
2022-08-12T14:44:57.330Z,0.82
2022-08-12T14:47:26.707Z,0.60
2022-08-12T14:50:37.105Z,0.65
2022-08-12T14:58:18.483Z,0.80
2022-08-12T15:00:50.728Z,0.80
2022-08-12T15:03:17.580Z,0.55
2022-08-12T15:06:06.459Z,0.57
2022-08-12T15:08:35.656Z,0.80
2022-08-12T15:11:03.688Z,0.68
2022-08-12T15:13:31.700Z,0.60
2022-08-12T15:15:59.799Z,0.85
2022-08-12T15:18:27.048Z,0.60
2022-08-12T15:20:55.564Z,0.50
2022-08-12T15:23:22.736Z,0.93
2022-08-12T15:26:02.414Z,0.73
2022-08-12T15:28:32.300Z,0.40
2022-08-12T15:30:59.248Z,0.60
2022-08-12T15:33:27.255Z,0.63
2022-08-12T15:36:13.142Z,0.70
2022-08-12T15:38:40.828Z,0.60
2022-08-12T15:41:09.016Z,0.50
2022-08-12T15:44:17.010Z,0.70
2022-08-12T15:46:25.592Z,0.50
2022-08-12T15:48:52.462Z,0.45
2022-08-12T15:51:58.448Z,0.70
2022-08-12T15:54:34.312Z,0.70
2022-08-12T15:57:04.621Z,0.70
2022-08-12T15:59:42.489Z,0.60
2022-08-12T16:02:18.275Z,0.70
2022-08-12T16:04:44.900Z,0.70
2022-08-12T16:07:12.481Z,0.68
2022-08-12T16:09:56.432Z,0.60
2022-08-12T16:12:28.166Z,0.55
2022-08-12T16:14:54.866Z,0.63
2022-08-12T16:17:21.553Z,0.57
2022-08-12T16:20:08.720Z,0.60
2022-08-12T16:22:38.831Z,0.60
2022-08-12T16:25:06.935Z,0.68
2022-08-12T16:27:38.632Z,0.60
2022-08-12T16:30:06.655Z,0.47
2022-08-12T16:32:33.209Z,0.60
2022-08-12T16:35:00.757Z,0.60
2022-08-12T16:37:32.338Z,0.50
2022-08-12T16:40:04.582Z,0.60
2022-08-12T16:42:35.468Z,0.57
2022-08-12T16:45:06.719Z,0.47
2022-08-12T16:47:58.670Z,0.47
2022-08-12T16:50:21.848Z,0.55
2022-08-12T16:52:57.692Z,0.55
2022-08-12T16:55:25.997Z,0.40
2022-08-12T16:57:54.060Z,0.80
2022-08-12T17:00:24.495Z,0.60
2022-08-12T17:02:58.356Z,0.45
2022-08-12T17:05:31.369Z,0.50
2022-08-12T17:07:59.849Z,0.52
2022-08-12T17:10:36.060Z,0.55
2022-08-12T17:13:10.305Z,0.60
2022-08-12T17:15:57.247Z,0.47
2022-08-12T17:18:44.157Z,0.50
2022-08-12T17:21:13.663Z,0.57
2022-08-12T17:23:48.568Z,0.50
2022-08-12T17:26:22.287Z,0.60
2022-08-12T17:28:55.052Z,0.50
2022-08-12T17:32:00.521Z,0.40
2022-08-12T17:34:17.234Z,0.55
2022-08-12T17:36:44.359Z,0.43
2022-08-12T17:39:15.248Z,0.50
2022-08-12T17:41:56.508Z,0.23
2022-08-12T17:44:24.082Z,0.70
2022-08-12T17:46:53.967Z,0.77
2022-08-12T17:50:02.445Z,0.43
2022-08-12T17:52:08.964Z,0.40
2022-08-12T17:54:37.258Z,0.60
2022-08-12T17:57:16.306Z,0.50
2022-08-12T17:59:48.133Z,0.40
2022-08-12T18:02:25.512Z,0.60
2022-08-12T18:05:05.067Z,0.57
2022-08-12T18:07:36.786Z,0.50
2022-08-12T18:10:06.681Z,0.40
2022-08-12T18:12:35.501Z,0.40
2022-08-12T18:15:09.042Z,0.40
2022-08-12T18:17:39.461Z,0.50
2022-08-12T18:20:15.498Z,0.50
2022-08-12T18:22:43.006Z,0.40
2022-08-12T18:26:15.967Z,0.50
2022-08-12T18:28:15.204Z,0.50
2022-08-12T18:30:52.943Z,0.40
2022-08-12T18:33:22.898Z,0.50
2022-08-12T18:35:53.695Z,0.40
2022-08-12T18:38:24.724Z,0.50
2022-08-12T18:40:53.989Z,0.40
2022-08-12T18:43:20.669Z,0.50
2022-08-12T18:45:57.447Z,0.40
2022-08-12T18:48:26.939Z,0.40
2022-08-12T18:51:04.778Z,0.43
2022-08-12T18:54:05.101Z,0.40
2022-08-12T18:56:33.756Z,0.60
2022-08-12T18:59:02.725Z,0.60
2022-08-12T19:02:19.916Z,0.50
2022-08-12T19:04:18.070Z,0.60
2022-08-12T19:06:46.458Z,0.43
2022-08-12T19:09:14.475Z,0.50
2022-08-12T19:11:41.451Z,0.50
2022-08-12T19:14:12.222Z,0.60
2022-08-12T19:16:41.365Z,0.70
2022-08-12T19:19:09.666Z,0.50
2022-08-12T19:21:38.784Z,0.30
2022-08-12T19:24:07.357Z,0.30
2022-08-12T19:26:34.989Z,0.40
2022-08-12T19:29:03.060Z,0.50
2022-08-12T19:31:56.039Z,0.50
2022-08-12T19:34:37.698Z,0.50
2022-08-12T19:37:08.788Z,0.50
2022-08-12T19:40:10.003Z,0.40
2022-08-12T19:42:27.459Z,0.50
2022-08-12T19:44:56.302Z,0.60
2022-08-12T19:47:25.142Z,0.50
2022-08-12T19:49:56.708Z,0.60
2022-08-12T19:52:28.550Z,0.40
2022-08-12T19:54:56.444Z,0.40
2022-08-12T19:57:23.441Z,0.50
2022-08-12T20:00:04.696Z,0.40
2022-08-12T20:02:32.912Z,0.40
2022-08-12T20:06:06.997Z,0.50
2022-08-12T20:07:56.979Z,0.40
2022-08-12T20:10:35.287Z,0.50
2022-08-12T20:13:17.436Z,0.50
2022-08-12T20:15:46.009Z,0.43
2022-08-12T20:18:18.974Z,0.50
2022-08-12T20:21:03.146Z,0.43
2022-08-12T20:23:59.691Z,0.47
2022-08-12T20:26:27.675Z,0.40
2022-08-12T20:28:54.254Z,0.50
2022-08-12T20:31:20.811Z,0.40
2022-08-12T20:33:50.695Z,0.40
2022-08-12T20:36:41.590Z,0.40
2022-08-12T20:39:37.261Z,0.60
2022-08-12T20:41:59.869Z,0.63
2022-08-12T20:44:27.198Z,0.50
2022-08-12T20:46:54.502Z,0.40
2022-08-12T20:49:25.123Z,0.50
2022-08-12T20:51:55.794Z,0.30
2022-08-12T20:54:32.459Z,0.60
2022-08-12T20:57:00.927Z,0.50
2022-08-12T20:59:31.892Z,0.40
2022-08-12T21:02:04.572Z,0.50
2022-08-12T21:04:31.768Z,0.50
2022-08-12T21:06:58.376Z,0.40
2022-08-12T21:09:40.614Z,0.40
2022-08-12T21:12:31.286Z,0.50
2022-08-12T21:14:57.038Z,0.53
2022-08-12T21:17:33.964Z,0.40
2022-08-12T21:20:15.794Z,0.80
2022-08-12T21:22:49.382Z,0.50
2022-08-12T21:25:17.384Z,0.60
2022-08-12T21:27:59.417Z,0.60
2022-08-12T21:30:37.251Z,0.60
2022-08-12T21:33:04.226Z,0.50
2022-08-12T21:35:40.123Z,0.50
2022-08-12T21:38:07.947Z,0.60
2022-08-12T21:40:37.045Z,0.57
2022-08-12T21:43:04.322Z,0.40
2022-08-12T21:45:45.778Z,0.50
2022-08-12T21:48:18.028Z,0.67
2022-08-12T21:50:45.408Z,0.30
2022-08-12T21:53:17.763Z,0.53
2022-08-12T21:55:49.115Z,0.50
2022-08-12T21:58:18.001Z,0.57
2022-08-12T22:00:44.571Z,0.60
2022-08-12T22:03:11.811Z,0.70
2022-08-12T22:05:44.707Z,0.50
2022-08-12T22:08:11.313Z,0.50
2022-08-12T22:10:39.569Z,0.50
2022-08-12T22:14:07.033Z,0.60
2022-08-12T22:15:57.432Z,0.43
2022-08-12T22:18:24.218Z,0.50
2022-08-12T22:20:54.364Z,0.67
2022-08-12T22:23:28.409Z,0.50
2022-08-12T22:26:09.962Z,0.50
2022-08-12T22:28:45.258Z,0.53
2022-08-12T22:31:15.295Z,0.70
2022-08-12T22:33:53.980Z,0.53
2022-08-12T22:36:27.925Z,0.50
2022-08-12T22:38:59.123Z,0.60
2022-08-12T22:41:26.665Z,0.60
2022-08-12T22:44:01.128Z,0.60
2022-08-12T22:46:30.413Z,0.60
2022-08-12T22:48:57.308Z,0.50
2022-08-12T22:51:24.047Z,0.53
2022-08-12T22:53:52.635Z,0.67
2022-08-12T22:56:19.544Z,0.60
2022-08-12T22:58:46.491Z,0.63
2022-08-12T23:01:51.608Z,0.60
2022-08-12T23:04:02.963Z,0.50
2022-08-12T23:06:29.658Z,0.60
2022-08-12T23:08:56.238Z,0.50
2022-08-12T23:11:25.550Z,0.80
2022-08-12T23:14:00.603Z,0.60
2022-08-12T23:16:33.535Z,0.73
2022-08-12T23:19:09.989Z,0.80
2022-08-12T23:22:05.954Z,0.70
2022-08-12T23:24:35.059Z,0.70
2022-08-12T23:27:03.161Z,0.40
2022-08-12T23:29:43.429Z,0.70
2022-08-12T23:32:11.967Z,0.63
2022-08-12T23:34:38.554Z,0.50
2022-08-12T23:37:06.497Z,0.57
2022-08-12T23:40:06.552Z,0.53
2022-08-12T23:42:21.198Z,0.60
2022-08-12T23:44:57.371Z,0.60
2022-08-12T23:47:26.003Z,0.63
2022-08-12T23:49:58.044Z,0.70
2022-08-12T23:52:28.459Z,0.60
2022-08-12T23:55:23.351Z,0.50
2022-08-12T23:58:17.482Z,0.70
